createdAt,value
2023-02-04T00:08:08.536Z,88830.31
2023-02-04T00:18:15.262Z,88815.22
2023-02-04T00:28:21.605Z,88787.59
2023-02-04T00:38:27.919Z,88785.28
2023-02-04T00:48:35.959Z,88751.53
2023-02-04T00:58:42.206Z,88782.81
2023-02-04T01:08:48.526Z,88756.41
2023-02-04T01:18:57.011Z,88701.69
2023-02-04T01:29:03.335Z,88663.34
2023-02-04T01:39:09.596Z,88661.59
2023-02-04T01:49:15.983Z,88531.81
2023-02-04T01:59:23.122Z,88447.16
2023-02-04T02:09:30.604Z,88500.75
2023-02-04T02:19:39.214Z,88460.25
2023-02-04T02:29:45.641Z,88495.31
2023-02-04T02:39:51.974Z,88610.84
2023-02-04T02:49:58.307Z,88713.81
2023-02-04T03:00:14.716Z,88856.19
2023-02-04T03:10:21.091Z,88968.31
2023-02-04T03:20:29.743Z,89095.75
2023-02-04T03:30:36.280Z,89159.94
2023-02-04T03:40:42.590Z,89215.97
2023-02-04T03:50:48.919Z,89287.44
2023-02-04T04:00:55.183Z,89337.31
2023-02-04T04:11:01.585Z,89376.97
2023-02-04T04:21:07.890Z,89529.06
2023-02-04T04:31:14.389Z,89488.81
2023-02-04T04:41:20.704Z,89467.78
2023-02-04T04:51:27.031Z,89427.66
2023-02-04T05:01:34.062Z,89527.97
2023-02-04T05:11:40.407Z,89748.38
2023-02-04T05:21:46.813Z,90021.19
2023-02-04T05:31:53.223Z,90062.53
2023-02-04T05:41:59.571Z,90384.34
2023-02-04T05:52:06.604Z,90559.31
2023-02-04T06:02:13.261Z,90879.34
2023-02-04T06:12:19.663Z,91149.41
2023-02-04T06:22:27.187Z,91378.41
2023-02-04T06:32:33.493Z,91722.34
2023-02-04T06:42:39.827Z,92001.06
2023-02-04T06:52:47.813Z,92334.06
2023-02-04T07:02:54.381Z,92597.69
2023-02-04T07:13:00.783Z,92786.50
2023-02-04T07:23:07.069Z,93029.19
2023-02-04T07:33:13.398Z,93121.06
2023-02-04T07:43:19.693Z,93518.34
2023-02-04T07:53:26.062Z,93718.16
2023-02-04T08:03:33.057Z,93892.75
2023-02-04T08:13:39.422Z,94295.69
2023-02-04T08:23:45.728Z,94401.59
2023-02-04T08:33:52.044Z,94759.75
2023-02-04T08:43:58.386Z,95016.87
2023-02-04T08:54:04.855Z,95182.25
2023-02-04T09:04:11.136Z,95316.50
2023-02-04T09:14:17.479Z,95504.78
2023-02-04T09:24:26.500Z,95493.66
2023-02-04T09:34:32.884Z,95850.97
2023-02-04T09:44:39.285Z,96003.38
2023-02-04T09:54:46.286Z,96142.38
2023-02-04T10:04:55.112Z,96207.34
2023-02-04T10:15:05.199Z,96527.16
2023-02-04T10:25:19.737Z,96574.28
2023-02-04T10:35:26.650Z,96868.91
2023-02-04T10:45:33.315Z,96981.41
2023-02-04T10:55:39.653Z,97125.59
2023-02-04T11:05:45.965Z,97127.00
2023-02-04T11:16:09.403Z,97255.16
2023-02-04T11:26:23.786Z,97340.00
2023-02-04T11:36:30.754Z,97441.03
2023-02-04T11:46:37.193Z,97483.00
2023-02-04T11:56:43.775Z,97663.25
2023-02-04T12:07:03.150Z,97769.28
2023-02-04T12:17:20.210Z,97830.69
2023-02-04T12:27:26.601Z,97820.78
2023-02-04T12:37:33.315Z,97927.44
2023-02-04T12:47:39.913Z,97944.44
2023-02-04T12:57:46.472Z,97976.69
2023-02-04T13:07:52.816Z,97986.88
2023-02-04T13:17:57.183Z,97956.69
2023-02-04T13:28:04.011Z,98006.72
2023-02-04T13:38:10.444Z,98008.50
2023-02-04T13:48:17.524Z,98005.00
2023-02-04T13:58:23.872Z,98020.50
2023-02-04T14:08:30.195Z,98029.31
2023-02-04T14:18:36.842Z,98024.94
2023-02-04T14:28:43.149Z,98026.87
2023-02-04T14:38:49.661Z,98005.53
2023-02-04T14:48:56.179Z,98022.06
2023-02-04T14:59:02.520Z,97983.88
2023-02-04T15:09:09.014Z,97959.25
2023-02-04T15:19:16.146Z,98003.00
2023-02-04T15:29:22.644Z,97941.22
2023-02-04T15:39:29.181Z,97844.59
2023-02-04T15:49:36.315Z,97806.53
2023-02-04T15:59:42.646Z,97769.38
2023-02-04T16:09:49.103Z,97715.22
2023-02-04T16:19:55.916Z,97613.28
2023-02-04T16:30:02.712Z,97532.59
2023-02-04T16:40:10.971Z,97490.12
2023-02-04T16:50:17.821Z,97467.56
2023-02-04T17:00:24.478Z,97441.19
2023-02-04T17:10:49.474Z,97412.25
2023-02-04T17:20:56.078Z,97385.97
2023-02-04T17:31:02.767Z,97381.97
2023-02-04T17:41:09.106Z,97338.63
2023-02-04T17:51:15.628Z,97310.13
2023-02-04T18:01:23.111Z,97283.91
2023-02-04T18:11:34.013Z,97250.06
2023-02-04T18:21:40.339Z,97200.62
2023-02-04T18:31:55.876Z,97164.94
2023-02-04T18:42:02.147Z,97156.38
2023-02-04T18:52:28.997Z,97176.72
2023-02-04T19:02:37.448Z,97208.75
2023-02-04T19:12:44.510Z,97258.66
2023-02-04T19:22:59.933Z,97330.88
2023-02-04T19:33:18.553Z,97394.59
2023-02-04T19:43:37.167Z,97457.38
2023-02-04T19:53:43.609Z,97497.31
2023-02-04T20:03:50.876Z,97475.66
2023-02-04T20:14:17.370Z,97428.25
2023-02-04T20:24:23.887Z,97391.00
2023-02-04T20:34:30.173Z,97341.81
2023-02-04T20:44:41.152Z,97323.94
2023-02-04T20:54:47.508Z,97332.59
2023-02-04T21:04:55.079Z,97347.00
2023-02-04T21:15:01.594Z,97384.44
2023-02-04T21:25:08.969Z,97399.50
2023-02-04T21:35:15.303Z,97470.84
2023-02-04T21:45:23.632Z,97519.31
2023-02-04T21:55:30.341Z,97552.34
2023-02-04T22:05:36.783Z,97618.59
2023-02-04T22:15:43.132Z,97682.00
2023-02-04T22:25:49.425Z,97747.25
2023-02-04T22:35:55.671Z,97800.66
2023-02-04T22:46:02.009Z,97870.12
2023-02-04T22:56:08.477Z,97920.06
2023-02-04T23:06:14.836Z,97938.66
2023-02-04T23:16:21.264Z,97969.16
2023-02-04T23:26:27.966Z,97980.16
2023-02-04T23:36:37.619Z,97993.72
2023-02-04T23:46:44.124Z,97977.59
2023-02-04T23:56:50.788Z,97977.59
